Time;durP1;ratioP1;P1;durP2;ratioP2;P2;SDS_P1;SDS_P2;PMS_P1;PMS_P2;Temp;Humidity;BMP_temperature;BMP_pressure;BME280_temperature;BME280_humidity;BME280_pressure;Samples;Min_cycle;Max_cycle;Signal;HPM_P1;HPM_P2
2023/09/13 00:00:01;;;;;;;25.27;22.75;;;;;;;18.82;100.00;101113.94;5010448;28;20541;-66
2023/09/13 00:02:26;;;;;;;26.75;24.02;;;;;;;18.77;100.00;101110.41;5010597;28;20045;-67
2023/09/13 00:04:54;;;;;;;27.80;24.77;;;;;;;18.72;100.00;101110.41;5009174;28;20029;-67
2023/09/13 00:07:19;;;;;;;27.38;24.50;;;;;;;18.71;100.00;101104.28;5009785;28;20136;-66
2023/09/13 00:09:45;;;;;;;27.88;24.88;;;;;;;18.69;100.00;101107.78;5009800;28;20028;-67
2023/09/13 00:12:12;;;;;;;27.85;24.90;;;;;;;18.66;100.00;101111.28;5010097;28;20029;-65
2023/09/13 00:14:37;;;;;;;28.70;25.48;;;;;;;18.66;100.00;101107.75;5009475;28;20413;-67
2023/09/13 00:17:02;;;;;;;30.85;27.25;;;;;;;18.63;100.00;101111.28;5009737;28;20025;-67
2023/09/13 00:19:28;;;;;;;31.35;26.38;;;;;;;18.62;100.00;101109.50;5009781;28;20076;-66
2023/09/13 00:21:54;;;;;;;31.70;28.58;;;;;;;18.63;100.00;101113.91;5009654;28;20520;-67
2023/09/13 00:24:19;;;;;;;32.55;29.05;;;;;;;18.64;100.00;101104.25;5009364;28;20386;-67
2023/09/13 00:26:44;;;;;;;32.47;29.02;;;;;;;18.64;100.00;101115.63;5009394;28;20057;-67
2023/09/13 00:29:10;;;;;;;33.58;29.95;;;;;;;18.64;100.00;101110.38;5009537;28;20033;-67
2023/09/13 00:31:35;;;;;;;33.58;29.95;;;;;;;18.59;100.00;101110.38;5009111;28;20026;-67
2023/09/13 00:34:01;;;;;;;34.35;30.70;;;;;;;18.62;100.00;101113.91;5009527;28;20041;-67
2023/09/13 00:36:26;;;;;;;34.05;29.88;;;;;;;18.60;100.00;101111.28;5009401;28;20363;-66
2023/09/13 00:38:51;;;;;;;32.83;29.35;;;;;;;18.61;100.00;101113.00;5009608;28;20033;-66
2023/09/13 00:41:17;;;;;;;33.30;29.85;;;;;;;18.63;100.00;101106.03;5009328;28;20033;-67
2023/09/13 00:43:42;;;;;;;32.72;28.90;;;;;;;18.63;100.00;101111.28;5009586;28;20084;-67
2023/09/13 00:46:07;;;;;;;32.25;28.88;;;;;;;18.63;100.00;101108.66;5009376;28;20030;-67
2023/09/13 00:48:35;;;;;;;35.83;30.40;;;;;;;18.62;100.00;101114.75;5009657;28;20042;-66
2023/09/13 00:51:01;;;;;;;34.53;30.77;;;;;;;18.59;100.00;101112.13;5009342;28;20022;-66
2023/09/13 00:53:28;;;;;;;33.42;29.90;;;;;;;18.54;100.00;101116.50;5009009;28;20032;-67
2023/09/13 00:55:54;;;;;;;34.85;30.70;;;;;;;18.50;100.00;101104.22;5008522;28;20037;-66
2023/09/13 00:58:19;;;;;;;36.42;30.80;;;;;;;18.43;100.00;101104.22;5009239;28;20034;-67
2023/09/13 01:00:48;;;;;;;35.10;31.42;;;;;;;18.38;100.00;101100.72;5009075;28;20026;-66
2023/09/13 01:03:15;;;;;;;35.03;31.23;;;;;;;18.38;100.00;101113.81;5008953;28;20096;-67
2023/09/13 01:05:41;;;;;;;34.53;30.88;;;;;;;18.31;100.00;101110.28;5008176;28;20056;-67
2023/09/13 01:08:07;;;;;;;36.95;32.30;;;;;;;18.27;100.00;101110.28;5007871;28;20030;-67
2023/09/13 01:10:32;;;;;;;35.17;31.35;;;;;;;18.26;100.00;101105.91;5008560;28;20455;-64
2023/09/13 01:12:58;;;;;;;35.88;31.98;;;;;;;18.27;100.00;101102.41;5008745;28;20108;-66
2023/09/13 01:15:26;;;;;;;37.85;33.53;;;;;;;18.27;100.00;101102.41;5008674;28;20021;-67
2023/09/13 01:18:04;;;;;;;37.42;32.70;;;;;;;18.28;100.00;101093.66;5007992;28;20403;-65
2023/09/13 01:21:06;;;;;;;39.58;34.72;;;;;;;18.28;100.00;101093.66;5008440;28;20073;-66
2023/09/13 01:24:08;;;;;;;38.45;33.60;;;;;;;18.26;100.00;101095.41;5008476;28;20041;-66
2023/09/13 01:27:02;;;;;;;39.93;34.67;;;;;;;18.24;100.00;101098.88;5008004;28;20035;-66
2023/09/13 01:29:31;;;;;;;39.00;34.58;;;;;;;18.26;100.00;101108.53;5008194;28;20100;-67
2023/09/13 01:31:56;;;;;;;42.83;36.80;;;;;;;18.26;100.00;101106.75;5008301;28;20502;-66
2023/09/13 01:34:21;;;;;;;42.05;37.03;;;;;;;18.20;100.00;101107.63;5008306;28;20030;-66
2023/09/13 01:36:47;;;;;;;44.22;35.92;;;;;;;18.21;100.00;101113.72;5008543;28;20462;-67
2023/09/13 01:39:12;;;;;;;39.80;34.67;;;;;;;18.17;100.00;101102.34;5008423;28;20029;-67
2023/09/13 01:41:45;;;;;;;44.70;36.55;;;;;;;18.19;100.00;101097.13;5008555;28;20030;-67
2023/09/13 01:44:11;;;;;;;41.17;36.70;;;;;;;18.17;100.00;101112.84;5008692;28;20436;-67
2023/09/13 01:46:43;;;;;;;47.78;38.15;;;;;;;18.13;100.00;101116.31;5008007;28;20030;-67
2023/09/13 01:49:09;;;;;;;45.53;37.72;;;;;;;18.13;100.00;101113.69;5008028;28;20029;-65
2023/09/13 01:51:35;;;;;;;41.30;36.05;;;;;;;18.13;100.00;101126.78;5007319;28;20026;-67
2023/09/13 01:54:01;;;;;;;44.17;37.70;;;;;;;18.12;100.00;101127.66;5007717;28;20120;-66
2023/09/13 01:56:26;;;;;;;47.65;39.97;;;;;;;18.11;100.00;101136.41;5008175;28;20151;-67
2023/09/13 01:58:51;;;;;;;46.17;39.90;;;;;;;18.11;100.00;101131.16;5008019;28;20767;-65
2023/09/13 02:01:17;;;;;;;48.78;38.95;;;;;;;18.10;100.00;101127.66;5008236;28;20040;-67
2023/09/13 02:03:43;;;;;;;48.33;40.08;;;;;;;18.09;100.00;101130.25;5007607;28;20065;-67
2023/09/13 02:06:09;;;;;;;45.90;40.42;;;;;;;18.09;100.00;101131.16;5007632;28;20046;-66
2023/09/13 02:08:35;;;;;;;48.40;42.67;;;;;;;18.11;100.00;101141.63;5007840;28;20378;-67
2023/09/13 02:11:00;;;;;;;56.88;45.15;;;;;;;18.07;100.00;101138.13;5007800;28;20057;-67
2023/09/13 02:13:25;;;;;;;57.28;45.00;;;;;;;18.05;100.00;101133.72;5008004;28;20072;-67
2023/09/13 02:15:51;;;;;;;55.97;44.85;;;;;;;18.00;100.00;101137.22;5007248;28;20393;-67
2023/09/13 02:18:17;;;;;;;61.35;46.20;;;;;;;17.99;100.00;101145.94;5007598;28;20026;-67
2023/09/13 02:20:42;;;;;;;56.15;44.90;;;;;;;17.99;100.00;101142.44;5007871;28;20061;-67
2023/09/13 02:23:07;;;;;;;62.75;46.20;;;;;;;17.95;100.00;101141.53;5007774;28;20029;-65
2023/09/13 02:25:40;;;;;;;60.08;47.65;;;;;;;17.94;100.00;101142.41;5007460;28;20029;-64
2023/09/13 02:28:05;;;;;;;62.45;46.67;;;;;;;17.92;100.00;101146.75;5007960;28;20080;-67
2023/09/13 02:30:33;;;;;;;58.42;46.10;;;;;;;17.91;100.00;101147.66;5007616;28;20029;-67
2023/09/13 02:32:58;;;;;;;67.82;51.47;;;;;;;17.92;100.00;101153.78;5007737;28;20553;-65
2023/09/13 02:35:24;;;;;;;63.70;50.17;;;;;;;17.94;100.00;101152.91;5007598;28;20112;-67
2023/09/13 02:37:49;;;;;;;68.38;52.00;;;;;;;17.97;100.00;101157.28;5007738;28;20224;-66
2023/09/13 02:40:14;;;;;;;67.18;50.42;;;;;;;17.96;100.00;101155.53;5007793;28;20049;-65
2023/09/13 02:42:39;;;;;;;65.97;49.60;;;;;;;17.96;100.00;101161.66;5007383;28;20022;-65
2023/09/13 02:45:05;;;;;;;62.70;49.30;;;;;;;17.99;100.00;101152.91;5007556;28;20100;-67
2023/09/13 02:47:31;;;;;;;67.55;51.03;;;;;;;18.00;100.00;101155.56;5007238;28;20026;-66
2023/09/13 02:49:56;;;;;;;63.85;50.20;;;;;;;18.02;100.00;101149.44;5007785;28;20115;-67
2023/09/13 02:52:29;;;;;;;73.78;52.08;;;;;;;18.03;100.00;101151.19;5007286;28;20501;-66
2023/09/13 02:54:56;;;;;;;72.63;54.38;;;;;;;18.05;100.00;101159.94;5007585;28;20059;-67
2023/09/13 02:57:21;;;;;;;78.45;55.78;;;;;;;17.97;100.00;101163.41;5006969;28;20028;-67
2023/09/13 02:59:47;;;;;;;72.57;52.67;;;;;;;18.00;100.00;101163.44;5007490;28;20432;-66
2023/09/13 03:02:12;;;;;;;72.57;54.47;;;;;;;18.02;100.00;101162.56;5007873;28;20030;-67
2023/09/13 03:04:37;;;;;;;82.50;55.80;;;;;;;18.03;100.00;101161.69;5007437;28;20026;-67
2023/09/13 03:07:03;;;;;;;83.07;55.42;;;;;;;18.02;100.00;101173.03;5007238;28;20053;-67
2023/09/13 03:09:28;;;;;;;78.68;53.03;;;;;;;18.02;100.00;101165.19;5007129;28;20025;-67
2023/09/13 03:11:53;;;;;;;73.97;54.30;;;;;;;17.97;100.00;101168.63;5007305;28;20040;-66
2023/09/13 03:14:19;;;;;;;72.80;53.65;;;;;;;17.95;100.00;101164.28;5007517;28;20030;-67
2023/09/13 03:16:44;;;;;;;82.05;55.28;;;;;;;17.93;100.00;101160.75;5007296;28;20021;-67
2023/09/13 03:19:10;;;;;;;78.13;54.47;;;;;;;17.94;100.00;101176.50;5006800;28;20509;-66
2023/09/13 03:21:35;;;;;;;75.50;51.97;;;;;;;17.90;100.00;101172.09;5007413;28;20036;-66
2023/09/13 03:24:01;;;;;;;77.65;52.78;;;;;;;17.93;100.00;101179.09;5007966;28;20466;-67
2023/09/13 03:26:26;;;;;;;77.28;53.78;;;;;;;17.94;100.00;101179.09;5007380;28;20037;-66
2023/09/13 03:28:53;;;;;;;68.22;50.95;;;;;;;17.95;100.00;101175.59;5006869;28;20065;-66
2023/09/13 03:31:21;;;;;;;70.32;51.45;;;;;;;17.95;100.00;101174.75;5008367;28;20490;-67
2023/09/13 03:33:48;;;;;;;66.43;48.75;;;;;;;17.96;100.00;101169.53;5010996;28;20034;-65
2023/09/13 03:36:14;;;;;;;70.80;49.25;;;;;;;17.98;100.00;101170.41;5010754;28;20389;-67
2023/09/13 03:38:41;;;;;;;70.85;51.20;;;;;;;17.98;100.00;101180.91;5010096;28;20061;-67
2023/09/13 03:41:08;;;;;;;62.22;45.80;;;;;;;17.98;100.00;101172.16;5010968;28;20061;-65
2023/09/13 03:43:34;;;;;;;68.75;49.00;;;;;;;17.96;100.00;101174.75;5010256;28;20026;-67
2023/09/13 03:46:00;;;;;;;69.63;48.83;;;;;;;17.96;100.00;101182.63;5010831;28;20033;-65
2023/09/13 03:48:25;;;;;;;70.38;47.85;;;;;;;17.96;100.00;101182.63;5010660;28;20088;-67
2023/09/13 03:50:51;;;;;;;66.00;47.45;;;;;;;17.96;100.00;101182.63;5010285;28;20030;-67
2023/09/13 03:53:16;;;;;;;69.85;49.88;;;;;;;17.98;100.00;101182.63;5009705;28;20029;-66
2023/09/13 03:55:42;;;;;;;69.75;49.50;;;;;;;17.97;100.00;101189.59;5010203;28;20390;-66
2023/09/13 03:58:07;;;;;;;72.47;50.42;;;;;;;17.96;100.00;101185.25;5010245;28;20121;-65
2023/09/13 04:00:35;;;;;;;70.35;50.60;;;;;;;17.98;100.00;101191.38;5010282;28;20113;-65
2023/09/13 04:03:01;;;;;;;70.90;52.63;;;;;;;17.98;100.00;101180.00;5010012;28;20107;-66
2023/09/13 04:05:26;;;;;;;74.05;51.13;;;;;;;17.98;100.00;101175.66;5009591;28;20416;-66
2023/09/13 04:07:51;;;;;;;72.18;50.13;;;;;;;17.98;100.00;101178.28;5010022;28;20081;-67
2023/09/13 04:10:16;;;;;;;70.20;50.30;;;;;;;17.98;100.00;101175.66;5009755;28;20148;-67
2023/09/13 04:12:42;;;;;;;69.50;50.40;;;;;;;17.99;100.00;101173.88;5009356;28;20022;-66
2023/09/13 04:15:08;;;;;;;76.30;51.47;;;;;;;17.94;100.00;101178.22;5008265;28;20025;-67
2023/09/13 04:17:33;;;;;;;77.70;52.25;;;;;;;17.93;100.00;101180.00;5009558;28;20684;-66
2023/09/13 04:19:58;;;;;;;74.45;52.58;;;;;;;17.91;100.00;101179.09;5009873;28;20386;-67
2023/09/13 04:22:23;;;;;;;73.13;52.10;;;;;;;17.90;100.00;101181.72;5009510;28;20037;-66
2023/09/13 04:24:49;;;;;;;72.72;50.65;;;;;;;17.90;100.00;101182.56;5009481;28;20111;-67
2023/09/13 04:27:21;;;;;;;75.03;53.67;;;;;;;17.90;100.00;101181.72;5009376;28;20022;-65
2023/09/13 04:29:47;;;;;;;72.28;51.13;;;;;;;17.90;100.00;101181.72;5009773;28;20643;-67
2023/09/13 04:32:12;;;;;;;71.30;49.83;;;;;;;17.87;100.00;101182.56;5009439;28;20402;-66
2023/09/13 04:34:37;;;;;;;69.60;51.30;;;;;;;17.87;100.00;101191.31;5009239;28;20033;-67
2023/09/13 04:37:06;;;;;;;75.72;51.03;;;;;;;17.87;100.00;101185.19;5009049;28;20086;-67
2023/09/13 04:39:31;;;;;;;72.00;51.58;;;;;;;17.79;100.00;101184.25;5009304;28;20497;-67
2023/09/13 04:41:58;;;;;;;76.88;52.90;;;;;;;17.76;100.00;101188.59;5009599;28;20028;-66
2023/09/13 04:44:24;;;;;;;70.38;49.67;;;;;;;17.76;100.00;101185.97;5009236;28;20083;-66
2023/09/13 04:46:50;;;;;;;69.85;50.13;;;;;;;17.74;100.00;101190.31;5009307;28;20030;-67
2023/09/13 04:49:15;;;;;;;75.65;49.28;;;;;;;17.73;100.00;101191.22;5008568;28;20028;-66
2023/09/13 04:51:41;;;;;;;72.95;50.40;;;;;;;17.71;100.00;101187.69;5009276;28;20466;-67
2023/09/13 04:54:06;;;;;;;79.60;51.97;;;;;;;17.68;100.00;101182.44;5009213;28;20033;-67
2023/09/13 04:56:31;;;;;;;71.70;50.47;;;;;;;17.63;100.00;101178.88;5009001;28;20026;-66
2023/09/13 04:58:56;;;;;;;74.55;51.65;;;;;;;17.63;100.00;101177.13;5009030;28;20030;-67
2023/09/13 05:01:22;;;;;;;73.70;50.13;;;;;;;17.58;100.00;101185.81;5008558;28;20062;-67
2023/09/13 05:03:48;;;;;;;74.28;50.55;;;;;;;17.58;100.00;101194.56;5007728;28;20498;-67
2023/09/13 05:06:13;;;;;;;74.00;50.20;;;;;;;17.56;100.00;101192.81;5007001;28;20052;-66
2023/09/13 05:08:39;;;;;;;75.78;48.72;;;;;;;17.57;100.00;101205.03;5006934;28;20032;-66
2023/09/13 05:11:04;;;;;;;69.70;48.92;;;;;;;17.54;100.00;101200.63;5007215;28;20242;-66
2023/09/13 05:13:31;;;;;;;74.10;48.97;;;;;;;17.57;100.00;101205.03;5008139;28;20339;-67
2023/09/13 05:15:56;;;;;;;73.47;49.03;;;;;;;17.56;100.00;101203.31;5006262;28;20053;-66
2023/09/13 05:18:22;;;;;;;75.75;48.58;;;;;;;17.57;100.00;101205.94;5007121;28;20412;-66
2023/09/13 05:20:47;;;;;;;73.75;48.10;;;;;;;17.53;100.00;101198.91;5008754;28;20026;-67
2023/09/13 05:23:12;;;;;;;67.97;46.17;;;;;;;17.54;100.00;101199.78;5008988;28;20520;-66
2023/09/13 05:25:45;;;;;;;62.80;45.08;;;;;;;17.51;100.00;101206.75;5008504;28;20414;-67
2023/09/13 05:28:13;;;;;;;69.90;46.28;;;;;;;17.52;100.00;101203.25;5008753;28;20038;-66
2023/09/13 05:30:39;;;;;;;64.70;46.40;;;;;;;17.54;100.00;101207.63;5007874;28;20053;-66
2023/09/13 05:33:04;;;;;;;67.88;46.08;;;;;;;17.47;100.00;101196.19;5008655;28;20389;-67
2023/09/13 05:35:31;;;;;;;64.75;45.17;;;;;;;17.44;100.00;101204.94;5007815;28;20022;-66
2023/09/13 05:37:56;;;;;;;71.90;47.75;;;;;;;17.37;100.00;101200.50;5008227;28;20485;-66
2023/09/13 05:40:21;;;;;;;66.65;45.88;;;;;;;17.38;100.00;101203.13;5007853;28;20100;-66
2023/09/13 05:42:47;;;;;;;67.70;45.38;;;;;;;17.39;100.00;101214.50;5008307;28;20022;-66
2023/09/13 05:45:12;;;;;;;61.10;44.20;;;;;;;17.39;100.00;101212.75;5008020;28;20106;-66
2023/09/13 05:47:37;;;;;;;66.05;45.40;;;;;;;17.39;100.00;101219.72;5007713;28;20034;-67
2023/09/13 05:50:03;;;;;;;66.18;46.00;;;;;;;17.42;100.00;101227.59;5008452;28;20470;-67
2023/09/13 05:52:28;;;;;;;62.70;45.10;;;;;;;17.45;100.00;101225.00;5007806;28;20026;-67
2023/09/13 05:54:53;;;;;;;67.65;46.53;;;;;;;17.46;100.00;101226.78;5007617;28;20026;-66
2023/09/13 05:57:18;;;;;;;62.70;44.95;;;;;;;17.50;100.00;101228.53;5008120;28;20021;-66
2023/09/13 05:59:44;;;;;;;62.40;45.58;;;;;;;17.48;100.00;101232.91;5008482;28;20069;-67
2023/09/13 06:02:09;;;;;;;62.45;44.33;;;;;;;17.52;100.00;101237.31;5007534;28;20367;-65
2023/09/13 06:04:34;;;;;;;67.00;45.88;;;;;;;17.54;100.00;101236.47;5008021;28;20490;-66
2023/09/13 06:06:59;;;;;;;66.78;45.88;;;;;;;17.56;100.00;101237.34;5007924;28;20054;-66
2023/09/13 06:09:25;;;;;;;60.88;45.72;;;;;;;17.57;100.00;101241.72;5008334;28;20026;-67
2023/09/13 06:11:50;;;;;;;60.08;43.60;;;;;;;17.55;100.00;101249.56;5007696;28;20021;-67
2023/09/13 06:14:18;;;;;;;60.58;43.85;;;;;;;17.56;100.00;101239.97;5007493;28;20046;-67
2023/09/13 06:16:43;;;;;;;59.08;43.28;;;;;;;17.52;100.00;101254.78;5007830;28;20068;-67
2023/09/13 06:19:08;;;;;;;62.05;45.40;;;;;;;17.55;100.00;101253.91;5007879;28;20046;-67
2023/09/13 06:21:33;;;;;;;59.70;42.80;;;;;;;17.53;100.00;101256.53;5007409;28;20447;-66
2023/09/13 06:23:59;;;;;;;56.67;39.53;;;;;;;17.54;100.00;101273.13;5007698;28;20029;-65
2023/09/13 06:26:24;;;;;;;59.50;43.95;;;;;;;17.53;100.00;101269.63;5007826;28;20034;-67
2023/09/13 06:28:49;;;;;;;63.30;43.15;;;;;;;17.56;100.00;101271.41;5007559;28;20354;-66
2023/09/13 06:31:15;;;;;;;51.67;38.47;;;;;;;17.59;100.00;101276.69;5007527;28;20394;-67
2023/09/13 06:33:40;;;;;;;54.40;40.67;;;;;;;17.62;100.00;101281.94;5007593;28;20038;-67
2023/09/13 06:36:06;;;;;;;54.72;39.72;;;;;;;17.65;100.00;101287.19;5007197;28;20025;-67
2023/09/13 06:38:31;;;;;;;46.35;36.60;;;;;;;17.68;100.00;101284.63;5008253;28;20201;-67
2023/09/13 06:40:57;;;;;;;48.15;36.45;;;;;;;17.67;100.00;101292.44;5007543;28;20426;-67
2023/09/13 06:43:22;;;;;;;53.10;37.25;;;;;;;17.72;100.00;101293.41;5007091;28;20040;-65
2023/09/13 06:45:48;;;;;;;46.00;36.22;;;;;;;17.74;100.00;101286.41;5007281;28;20018;-67
2023/09/13 06:48:14;;;;;;;48.03;36.25;;;;;;;17.76;100.00;101300.41;5007523;28;20038;-66
2023/09/13 06:50:40;;;;;;;48.10;36.30;;;;;;;17.80;100.00;101296.06;5007090;28;20429;-67
2023/09/13 06:53:05;;;;;;;42.25;34.88;;;;;;;17.81;100.00;101297.84;5007370;28;20025;-67
2023/09/13 06:55:32;;;;;;;44.88;34.50;;;;;;;17.82;100.00;101300.47;5007093;28;20463;-66
2023/09/13 06:57:57;;;;;;;47.05;36.30;;;;;;;17.83;100.00;101302.22;5007679;28;20374;-66
2023/09/13 07:00:22;;;;;;;53.35;37.75;;;;;;;17.80;100.00;101306.56;5006562;28;20104;-66
2023/09/13 07:02:47;;;;;;;45.40;35.63;;;;;;;17.83;100.00;101312.72;5007606;28;20030;-67
2023/09/13 07:05:13;;;;;;;48.90;36.55;;;;;;;17.85;100.00;101304.84;5007660;28;20182;-67
2023/09/13 07:07:38;;;;;;;46.40;34.47;;;;;;;17.89;100.00;101314.50;5011241;28;20481;-67
2023/09/13 07:10:04;;;;;;;46.05;34.55;;;;;;;17.95;100.00;101322.41;5010936;28;20029;-66
2023/09/13 07:12:29;;;;;;;39.50;32.58;;;;;;;17.99;100.00;101312.84;5010958;28;20057;-65
2023/09/13 07:14:55;;;;;;;41.83;34.40;;;;;;;18.03;100.00;101314.63;5011171;28;20018;-67
2023/09/13 07:17:20;;;;;;;41.50;32.55;;;;;;;18.08;100.00;101312.06;5011090;28;20417;-67
2023/09/13 07:19:45;;;;;;;46.72;34.88;;;;;;;18.12;100.00;101316.44;5011263;28;20026;-67
2023/09/13 07:22:11;;;;;;;42.40;33.42;;;;;;;18.19;100.00;101315.66;5010550;28;20477;-67
2023/09/13 07:24:36;;;;;;;43.90;33.17;;;;;;;18.20;100.00;101316.53;5010963;28;20105;-67
2023/09/13 07:27:01;;;;;;;41.95;35.13;;;;;;;18.21;100.00;101319.19;5011120;28;20069;-67
2023/09/13 07:29:27;;;;;;;47.53;36.80;;;;;;;18.20;100.00;101320.06;5010758;28;20037;-67
2023/09/13 07:31:52;;;;;;;47.50;34.95;;;;;;;18.23;100.00;101325.31;5010601;28;20064;-67
2023/09/13 07:34:17;;;;;;;45.65;36.30;;;;;;;18.28;100.00;101334.94;5010574;28;20049;-67
2023/09/13 07:36:42;;;;;;;48.40;37.58;;;;;;;18.26;100.00;101323.59;5010941;28;20153;-67
2023/09/13 07:39:09;;;;;;;48.80;36.92;;;;;;;18.26;100.00;101336.72;5010350;28;20116;-67
2023/09/13 07:41:35;;;;;;;45.80;36.65;;;;;;;18.26;100.00;101337.56;5010315;28;20026;-65
2023/09/13 07:44:00;;;;;;;45.45;36.60;;;;;;;18.24;100.00;101339.31;5010686;28;20034;-67
2023/09/13 07:46:26;;;;;;;45.22;33.20;;;;;;;18.24;100.00;101344.56;5010667;28;20166;-67
2023/09/13 07:48:51;;;;;;;42.15;33.50;;;;;;;18.19;100.00;101347.13;5009914;28;20087;-66
2023/09/13 07:51:16;;;;;;;43.60;32.70;;;;;;;18.19;100.00;101344.50;5010182;28;20112;-66
2023/09/13 07:53:42;;;;;;;45.35;34.38;;;;;;;18.20;100.00;101355.88;5010175;28;20018;-67
2023/09/13 07:56:07;;;;;;;30.17;22.73;;;;;;;18.13;100.00;101373.28;5010302;28;20061;-67
2023/09/13 07:58:33;;;;;;;12.68;7.60;;;;;;;18.00;100.00;101373.19;5010259;28;20022;-67
2023/09/13 08:00:58;;;;;;;7.57;5.43;;;;;;;17.83;100.00;101391.34;5009849;28;20026;-67
2023/09/13 08:03:24;;;;;;;5.80;4.93;;;;;;;17.74;100.00;101394.75;5010087;28;20026;-66
2023/09/13 08:05:49;;;;;;;4.07;3.67;;;;;;;17.64;100.00;101390.25;5009605;28;20046;-66
2023/09/13 08:08:18;;;;;;;5.30;3.33;;;;;;;17.59;100.00;101403.28;5010078;28;20036;-67
2023/09/13 08:10:43;;;;;;;2.67;2.45;;;;;;;17.56;100.00;101402.41;5009371;28;20033;-67
2023/09/13 08:13:09;;;;;;;4.07;1.88;;;;;;;17.56;100.00;101412.88;5010026;28;20088;-65
2023/09/13 08:15:34;;;;;;;2.00;1.90;;;;;;;17.51;100.00;101408.47;5010055;28;20037;-66
2023/09/13 08:17:59;;;;;;;2.00;1.80;;;;;;;17.49;100.00;101414.53;5009447;28;20053;-66
2023/09/13 08:20:25;;;;;;;3.45;1.80;;;;;;;17.50;100.00;101414.53;5010146;28;20044;-67
2023/09/13 08:22:50;;;;;;;1.95;1.27;;;;;;;17.48;100.00;101416.28;5009507;28;20033;-66
2023/09/13 08:25:15;;;;;;;2.33;1.00;;;;;;;17.46;100.00;101427.59;5009910;28;20140;-66
2023/09/13 08:27:40;;;;;;;1.80;0.90;;;;;;;17.41;100.00;101430.16;5009792;28;20033;-67
2023/09/13 08:30:08;;;;;;;1.67;0.90;;;;;;;17.35;100.00;101437.94;5010048;28;20407;-67
2023/09/13 08:32:34;;;;;;;2.88;0.80;;;;;;;17.31;100.00;101449.22;5007892;28;20036;-66
2023/09/13 08:34:59;;;;;;;1.30;0.85;;;;;;;17.32;100.00;101456.25;5009603;28;20104;-67
2023/09/13 08:37:24;;;;;;;1.08;0.60;;;;;;;17.23;100.00;101457.88;5009916;28;20056;-67
2023/09/13 08:39:49;;;;;;;1.58;0.60;;;;;;;17.27;100.00;101457.03;5009508;28;20036;-67
2023/09/13 08:42:15;;;;;;;0.98;0.77;;;;;;;17.28;100.00;101465.78;5009322;28;20021;-66
2023/09/13 08:44:43;;;;;;;2.72;0.88;;;;;;;17.24;100.00;101472.72;5009317;28;20036;-67
2023/09/13 08:47:10;;;;;;;0.60;0.50;;;;;;;17.27;100.00;101483.22;5010024;28;20026;-67
2023/09/13 08:49:36;;;;;;;0.75;0.55;;;;;;;17.25;100.00;101489.31;5009567;28;20084;-67
2023/09/13 08:52:02;;;;;;;3.13;0.80;;;;;;;17.21;100.00;101483.16;5009149;28;20033;-67
2023/09/13 08:54:28;;;;;;;1.25;0.80;;;;;;;17.21;100.00;101501.50;5009519;28;20367;-67
2023/09/13 08:56:56;;;;;;;1.25;0.70;;;;;;;17.17;100.00;101499.66;5008808;28;20034;-66
2023/09/13 08:59:21;;;;;;;2.15;0.65;;;;;;;17.29;100.00;101509.44;5009499;28;20034;-67
2023/09/13 09:01:48;;;;;;;1.17;0.57;;;;;;;17.45;100.00;101517.53;5009295;28;20061;-67
2023/09/13 09:04:18;;;;;;;1.45;0.60;;;;;;;17.52;100.00;101530.72;5009214;28;20061;-66
2023/09/13 09:06:44;;;;;;;1.52;0.80;;;;;;;17.50;100.00;101535.06;5008306;28;20050;-67
2023/09/13 09:09:11;;;;;;;0.73;0.50;;;;;;;17.51;100.00;101541.19;5008918;28;20103;-67
2023/09/13 09:11:41;;;;;;;1.63;0.68;;;;;;;17.38;100.00;101543.63;5008501;28;20083;-66
2023/09/13 09:14:08;;;;;;;1.08;0.70;;;;;;;17.28;100.00;101545.25;5008868;28;20077;-66
2023/09/13 09:16:35;;;;;;;1.00;0.80;;;;;;;17.28;100.00;101542.63;5008939;28;20041;-67
2023/09/13 09:19:01;;;;;;;1.33;0.80;;;;;;;17.28;100.00;101540.00;5008565;28;20033;-67
2023/09/13 09:21:29;;;;;;;3.60;0.70;;;;;;;17.26;100.00;101552.19;5007851;28;20033;-67
2023/09/13 09:23:56;;;;;;;1.50;0.80;;;;;;;17.25;100.00;101554.78;5008431;28;20022;-66
2023/09/13 09:26:22;;;;;;;3.35;1.15;;;;;;;17.20;100.00;101557.31;5008317;28;20087;-67
2023/09/13 09:28:47;;;;;;;1.25;0.68;;;;;;;17.24;100.00;101561.75;5007851;28;20375;-67
2023/09/13 09:31:13;;;;;;;1.65;0.85;;;;;;;17.21;100.00;101561.72;5008402;28;20022;-66
2023/09/13 09:33:39;;;;;;;1.30;0.70;;;;;;;17.22;100.00;101566.09;5008807;28;20080;-66
2023/09/13 09:36:05;;;;;;;0.95;0.70;;;;;;;17.23;100.00;101572.22;5008091;28;20363;-67
2023/09/13 09:38:31;;;;;;;1.45;0.70;;;;;;;17.27;100.00;101577.50;5008677;28;20382;-67
2023/09/13 09:40:59;;;;;;;2.30;0.80;;;;;;;17.27;100.00;101574.88;5008593;28;20032;-67
2023/09/13 09:43:25;;;;;;;2.38;1.00;;;;;;;17.26;100.00;101573.16;5008435;28;20034;-67
2023/09/13 09:45:50;;;;;;;1.52;0.80;;;;;;;17.28;100.00;101576.66;5008077;28;20072;-66
2023/09/13 09:48:16;;;;;;;0.88;0.75;;;;;;;17.31;100.00;101580.16;5008304;28;20467;-66
2023/09/13 09:50:46;;;;;;;0.88;0.77;;;;;;;17.34;100.00;101586.34;5008444;28;20037;-67
2023/09/13 09:53:13;;;;;;;2.92;0.80;;;;;;;17.37;100.00;101585.53;5008141;28;20033;-67
2023/09/13 09:55:39;;;;;;;1.38;0.90;;;;;;;17.38;100.00;101587.28;5008926;28;20021;-66
2023/09/13 09:58:05;;;;;;;1.60;0.60;;;;;;;17.44;100.00;101586.50;5007918;28;20022;-67
2023/09/13 10:00:30;;;;;;;1.13;0.80;;;;;;;17.44;100.00;101592.63;5007797;28;20382;-65
2023/09/13 10:02:55;;;;;;;2.38;1.00;;;;;;;17.51;100.00;101594.47;5008132;28;20065;-66
2023/09/13 10:05:21;;;;;;;2.50;1.05;;;;;;;17.59;100.00;101596.34;5008602;28;20033;-67
2023/09/13 10:07:54;;;;;;;1.20;0.70;;;;;;;17.63;100.00;101592.88;5007888;28;20022;-67
2023/09/13 10:10:37;;;;;;;1.95;0.60;;;;;;;17.64;100.00;101590.31;5008131;28;20038;-65
2023/09/13 10:13:06;;;;;;;1.83;0.93;;;;;;;17.67;100.00;101604.28;5008361;28;20041;-67
2023/09/13 10:15:32;;;;;;;1.13;0.80;;;;;;;17.72;100.00;101606.13;5007185;28;20034;-66
2023/09/13 10:18:01;;;;;;;1.27;0.77;;;;;;;17.79;100.00;101606.22;5008359;28;20025;-66
2023/09/13 10:20:28;;;;;;;1.13;1.00;;;;;;;17.77;100.00;101607.06;5008123;28;20025;-67
2023/09/13 10:22:56;;;;;;;1.88;0.95;;;;;;;17.88;100.00;101607.22;5008144;28;20185;-66
2023/09/13 10:25:23;;;;;;;0.90;0.60;;;;;;;18.01;100.00;101612.63;5008158;28;20030;-67
2023/09/13 10:27:51;;;;;;;1.50;0.80;;;;;;;18.13;100.00;101617.16;5007376;28;20073;-65
2023/09/13 10:30:24;;;;;;;1.38;0.70;;;;;;;18.29;100.00;101615.66;5007803;28;20030;-66
2023/09/13 10:32:56;;;;;;;1.42;0.80;;;;;;;18.36;100.00;101617.47;5007956;28;20113;-66
2023/09/13 10:35:22;;;;;;;1.02;0.82;;;;;;;18.58;100.00;101627.34;5007983;28;20036;-67
2023/09/13 10:38:00;;;;;;;1.85;0.90;;;;;;;18.71;100.00;101628.31;5007895;28;20018;-67
2023/09/13 10:40:39;;;;;;;2.53;0.85;;;;;;;18.94;100.00;101641.69;5009297;28;20116;-67
2023/09/13 10:43:05;;;;;;;2.10;1.00;;;;;;;19.19;100.00;101635.84;5012157;28;20036;-67
2023/09/13 10:45:31;;;;;;;2.53;1.13;;;;;;;19.38;100.00;101641.22;5011586;28;20072;-66
2023/09/13 10:47:58;;;;;;;1.13;0.80;;;;;;;19.43;100.00;101650.91;5011688;28;20301;-66
2023/09/13 10:50:25;;;;;;;1.23;1.08;;;;;;;19.53;100.00;101656.25;5011960;28;20022;-67
2023/09/13 10:52:50;;;;;;;1.23;0.90;;;;;;;19.67;100.00;101657.22;5010952;28;20172;-65
2023/09/13 10:55:16;;;;;;;1.55;0.95;;;;;;;19.88;100.00;101657.34;5011197;28;20136;-67
2023/09/13 10:57:42;;;;;;;1.10;0.80;;;;;;;19.98;100.00;101660.91;5011103;28;20026;-66
2023/09/13 11:00:12;;;;;;;1.48;0.80;;;;;;;20.06;100.00;101655.75;5011712;28;20033;-67
2023/09/13 11:02:38;;;;;;;0.80;0.70;;;;;;;19.97;100.00;101667.91;5026507;28;20028;-67